sensor_id;sensor_type;location;lat;lon;timestamp;P1;durP1;ratioP1;P2;durP2;ratioP2
11303;SDS011;5707;49.588;12.148;2023-06-01T00:01:45;1.75;;;1.60;;
11303;SDS011;5707;49.588;12.148;2023-06-01T00:04:11;1.67;;;1.58;;
11303;SDS011;5707;49.588;12.148;2023-06-01T00:06:38;2.15;;;1.50;;
11303;SDS011;5707;49.588;12.148;2023-06-01T00:09:06;2.97;;;1.83;;
11303;SDS011;5707;49.588;12.148;2023-06-01T00:11:32;2.60;;;1.58;;
11303;SDS011;5707;49.588;12.148;2023-06-01T00:13:58;2.33;;;1.75;;
11303;SDS011;5707;49.588;12.148;2023-06-01T00:16:24;4.10;;;2.20;;
11303;SDS011;5707;49.588;12.148;2023-06-01T00:18:49;6.22;;;1.60;;
11303;SDS011;5707;49.588;12.148;2023-06-01T00:21:17;2.20;;;1.70;;
11303;SDS011;5707;49.588;12.148;2023-06-01T00:23:43;1.85;;;1.60;;
11303;SDS011;5707;49.588;12.148;2023-06-01T00:26:09;1.70;;;1.48;;
11303;SDS011;5707;49.588;12.148;2023-06-01T00:28:35;1.40;;;1.30;;
11303;SDS011;5707;49.588;12.148;2023-06-01T00:31:01;2.38;;;1.60;;
11303;SDS011;5707;49.588;12.148;2023-06-01T00:33:26;1.40;;;1.30;;
11303;SDS011;5707;49.588;12.148;2023-06-01T00:35:52;3.30;;;1.83;;
11303;SDS011;5707;49.588;12.148;2023-06-01T00:38:18;1.52;;;1.30;;
11303;SDS011;5707;49.588;12.148;2023-06-01T00:40:43;1.60;;;1.40;;
11303;SDS011;5707;49.588;12.148;2023-06-01T00:43:09;1.67;;;1.38;;
11303;SDS011;5707;49.588;12.148;2023-06-01T00:45:35;2.67;;;1.40;;
11303;SDS011;5707;49.588;12.148;2023-06-01T00:48:02;2.10;;;1.88;;
11303;SDS011;5707;49.588;12.148;2023-06-01T00:50:29;1.80;;;1.70;;
11303;SDS011;5707;49.588;12.148;2023-06-01T00:52:55;2.42;;;1.50;;
11303;SDS011;5707;49.588;12.148;2023-06-01T00:55:23;2.17;;;1.95;;
11303;SDS011;5707;49.588;12.148;2023-06-01T00:57:49;1.60;;;1.50;;
11303;SDS011;5707;49.588;12.148;2023-06-01T01:00:17;1.27;;;1.20;;
11303;SDS011;5707;49.588;12.148;2023-06-01T01:02:43;1.60;;;1.50;;
11303;SDS011;5707;49.588;12.148;2023-06-01T01:05:16;1.67;;;1.35;;
11303;SDS011;5707;49.588;12.148;2023-06-01T01:11:00;3.15;;;1.58;;
11303;SDS011;5707;49.588;12.148;2023-06-01T01:13:10;2.75;;;1.67;;
11303;SDS011;5707;49.588;12.148;2023-06-01T01:21:10;1.80;;;1.70;;
11303;SDS011;5707;49.588;12.148;2023-06-01T01:29:16;2.00;;;1.70;;
11303;SDS011;5707;49.588;12.148;2023-06-01T01:31:45;1.30;;;1.20;;
11303;SDS011;5707;49.588;12.148;2023-06-01T01:34:14;1.92;;;1.65;;
11303;SDS011;5707;49.588;12.148;2023-06-01T01:36:42;1.52;;;1.42;;
11303;SDS011;5707;49.588;12.148;2023-06-01T01:39:08;2.53;;;1.90;;
11303;SDS011;5707;49.588;12.148;2023-06-01T01:41:33;3.60;;;1.38;;
11303;SDS011;5707;49.588;12.148;2023-06-01T01:43:59;1.40;;;1.30;;
11303;SDS011;5707;49.588;12.148;2023-06-01T01:46:26;1.40;;;1.30;;
11303;SDS011;5707;49.588;12.148;2023-06-01T01:49:09;1.60;;;1.50;;
11303;SDS011;5707;49.588;12.148;2023-06-01T01:51:49;1.38;;;1.27;;
11303;SDS011;5707;49.588;12.148;2023-06-01T01:54:28;1.58;;;1.48;;
11303;SDS011;5707;49.588;12.148;2023-06-01T01:56:54;1.83;;;1.60;;
11303;SDS011;5707;49.588;12.148;2023-06-01T01:59:23;1.60;;;1.50;;
11303;SDS011;5707;49.588;12.148;2023-06-01T02:01:49;1.42;;;1.33;;
11303;SDS011;5707;49.588;12.148;2023-06-01T02:04:15;2.08;;;1.58;;
11303;SDS011;5707;49.588;12.148;2023-06-01T02:06:40;1.90;;;1.80;;
11303;SDS011;5707;49.588;12.148;2023-06-01T02:09:06;2.47;;;1.60;;
11303;SDS011;5707;49.588;12.148;2023-06-01T02:11:32;3.13;;;1.33;;
11303;SDS011;5707;49.588;12.148;2023-06-01T02:13:59;1.73;;;1.40;;
11303;SDS011;5707;49.588;12.148;2023-06-01T02:16:24;1.50;;;1.40;;
11303;SDS011;5707;49.588;12.148;2023-06-01T02:18:50;1.80;;;1.70;;
11303;SDS011;5707;49.588;12.148;2023-06-01T02:21:16;2.22;;;1.15;;
11303;SDS011;5707;49.588;12.148;2023-06-01T02:23:42;1.75;;;1.40;;
11303;SDS011;5707;49.588;12.148;2023-06-01T02:26:08;1.63;;;1.50;;
11303;SDS011;5707;49.588;12.148;2023-06-01T02:28:36;1.65;;;1.42;;
11303;SDS011;5707;49.588;12.148;2023-06-01T02:31:05;2.22;;;1.50;;
11303;SDS011;5707;49.588;12.148;2023-06-01T02:33:31;1.20;;;1.20;;
11303;SDS011;5707;49.588;12.148;2023-06-01T02:35:57;1.50;;;1.38;;
11303;SDS011;5707;49.588;12.148;2023-06-01T02:38:23;1.60;;;1.50;;
11303;SDS011;5707;49.588;12.148;2023-06-01T02:40:49;1.85;;;1.38;;
11303;SDS011;5707;49.588;12.148;2023-06-01T02:43:14;1.65;;;1.45;;
11303;SDS011;5707;49.588;12.148;2023-06-01T02:45:40;1.77;;;1.48;;
11303;SDS011;5707;49.588;12.148;2023-06-01T02:48:06;2.65;;;1.50;;
11303;SDS011;5707;49.588;12.148;2023-06-01T02:50:31;1.73;;;1.58;;
11303;SDS011;5707;49.588;12.148;2023-06-01T02:52:57;2.13;;;1.63;;
11303;SDS011;5707;49.588;12.148;2023-06-01T02:55:22;1.33;;;1.25;;
11303;SDS011;5707;49.588;12.148;2023-06-01T02:57:48;1.17;;;1.08;;
11303;SDS011;5707;49.588;12.148;2023-06-01T03:00:13;1.83;;;1.67;;
11303;SDS011;5707;49.588;12.148;2023-06-01T03:02:43;2.67;;;1.40;;
11303;SDS011;5707;49.588;12.148;2023-06-01T03:05:12;1.60;;;1.50;;
11303;SDS011;5707;49.588;12.148;2023-06-01T03:07:39;2.22;;;1.27;;
11303;SDS011;5707;49.588;12.148;2023-06-01T03:10:09;2.83;;;1.60;;
11303;SDS011;5707;49.588;12.148;2023-06-01T03:12:35;1.25;;;1.15;;
11303;SDS011;5707;49.588;12.148;2023-06-01T03:15:01;1.58;;;1.40;;
11303;SDS011;5707;49.588;12.148;2023-06-01T03:17:26;1.92;;;1.60;;
11303;SDS011;5707;49.588;12.148;2023-06-01T03:19:52;1.50;;;1.40;;
11303;SDS011;5707;49.588;12.148;2023-06-01T03:22:17;1.67;;;1.33;;
11303;SDS011;5707;49.588;12.148;2023-06-01T03:24:43;1.83;;;1.33;;
11303;SDS011;5707;49.588;12.148;2023-06-01T03:27:09;1.70;;;1.30;;
11303;SDS011;5707;49.588;12.148;2023-06-01T03:29:36;1.35;;;1.25;;
11303;SDS011;5707;49.588;12.148;2023-06-01T03:32:01;2.63;;;1.70;;
11303;SDS011;5707;49.588;12.148;2023-06-01T03:34:27;1.40;;;1.30;;
11303;SDS011;5707;49.588;12.148;2023-06-01T03:36:53;1.70;;;1.60;;
11303;SDS011;5707;49.588;12.148;2023-06-01T03:39:19;1.50;;;1.40;;
11303;SDS011;5707;49.588;12.148;2023-06-01T03:41:44;1.98;;;1.67;;
11303;SDS011;5707;49.588;12.148;2023-06-01T03:44:11;1.67;;;1.58;;
11303;SDS011;5707;49.588;12.148;2023-06-01T03:46:37;1.67;;;1.45;;
11303;SDS011;5707;49.588;12.148;2023-06-01T03:49:03;1.42;;;1.33;;
11303;SDS011;5707;49.588;12.148;2023-06-01T03:51:29;1.40;;;1.30;;
11303;SDS011;5707;49.588;12.148;2023-06-01T03:53:55;1.38;;;1.27;;
11303;SDS011;5707;49.588;12.148;2023-06-01T03:56:21;1.35;;;1.23;;
11303;SDS011;5707;49.588;12.148;2023-06-01T03:58:47;2.92;;;1.45;;
11303;SDS011;5707;49.588;12.148;2023-06-01T04:01:13;1.63;;;1.52;;
11303;SDS011;5707;49.588;12.148;2023-06-01T04:03:41;1.50;;;1.40;;
11303;SDS011;5707;49.588;12.148;2023-06-01T04:06:08;2.35;;;1.55;;
11303;SDS011;5707;49.588;12.148;2023-06-01T04:08:38;1.63;;;1.52;;
11303;SDS011;5707;49.588;12.148;2023-06-01T04:11:13;3.92;;;1.45;;
11303;SDS011;5707;49.588;12.148;2023-06-01T04:13:43;1.77;;;1.25;;
11303;SDS011;5707;49.588;12.148;2023-06-01T04:16:10;1.48;;;1.38;;
11303;SDS011;5707;49.588;12.148;2023-06-01T04:18:35;1.85;;;1.75;;
11303;SDS011;5707;49.588;12.148;2023-06-01T04:21:01;3.58;;;1.55;;
11303;SDS011;5707;49.588;12.148;2023-06-01T04:23:27;1.40;;;1.30;;
11303;SDS011;5707;49.588;12.148;2023-06-01T04:25:52;1.63;;;1.52;;
11303;SDS011;5707;49.588;12.148;2023-06-01T04:28:24;1.60;;;1.30;;
11303;SDS011;5707;49.588;12.148;2023-06-01T04:30:55;1.38;;;1.23;;
11303;SDS011;5707;49.588;12.148;2023-06-01T04:33:20;1.65;;;1.52;;
11303;SDS011;5707;49.588;12.148;2023-06-01T04:35:47;4.60;;;1.30;;
11303;SDS011;5707;49.588;12.148;2023-06-01T04:38:13;1.60;;;1.50;;
11303;SDS011;5707;49.588;12.148;2023-06-01T04:40:41;1.63;;;1.52;;
11303;SDS011;5707;49.588;12.148;2023-06-01T04:43:09;1.77;;;1.50;;
11303;SDS011;5707;49.588;12.148;2023-06-01T04:45:36;1.95;;;1.60;;
11303;SDS011;5707;49.588;12.148;2023-06-01T04:48:03;3.72;;;2.17;;
11303;SDS011;5707;49.588;12.148;2023-06-01T04:50:33;1.90;;;1.80;;
11303;SDS011;5707;49.588;12.148;2023-06-01T04:52:59;2.20;;;2.00;;
11303;SDS011;5707;49.588;12.148;2023-06-01T04:55:25;2.13;;;1.92;;
11303;SDS011;5707;49.588;12.148;2023-06-01T04:57:51;2.35;;;2.15;;
11303;SDS011;5707;49.588;12.148;2023-06-01T05:00:17;2.45;;;2.25;;
11303;SDS011;5707;49.588;12.148;2023-06-01T05:02:44;2.13;;;1.88;;
11303;SDS011;5707;49.588;12.148;2023-06-01T05:05:11;1.77;;;1.55;;
11303;SDS011;5707;49.588;12.148;2023-06-01T05:07:38;1.52;;;1.40;;
11303;SDS011;5707;49.588;12.148;2023-06-01T05:10:05;3.20;;;1.40;;
11303;SDS011;5707;49.588;12.148;2023-06-01T05:12:32;1.48;;;1.38;;
11303;SDS011;5707;49.588;12.148;2023-06-01T05:14:58;2.10;;;1.77;;
11303;SDS011;5707;49.588;12.148;2023-06-01T05:17:24;2.13;;;1.38;;
11303;SDS011;5707;49.588;12.148;2023-06-01T05:19:50;3.47;;;1.60;;
11303;SDS011;5707;49.588;12.148;2023-06-01T05:22:16;1.65;;;1.52;;
11303;SDS011;5707;49.588;12.148;2023-06-01T05:24:42;2.88;;;1.90;;
11303;SDS011;5707;49.588;12.148;2023-06-01T05:27:07;1.92;;;1.77;;
11303;SDS011;5707;49.588;12.148;2023-06-01T05:29:33;3.28;;;1.60;;
11303;SDS011;5707;49.588;12.148;2023-06-01T05:31:59;1.70;;;1.60;;
11303;SDS011;5707;49.588;12.148;2023-06-01T05:34:24;2.03;;;1.85;;
11303;SDS011;5707;49.588;12.148;2023-06-01T05:36:50;2.17;;;1.98;;
11303;SDS011;5707;49.588;12.148;2023-06-01T05:39:16;3.92;;;2.28;;
11303;SDS011;5707;49.588;12.148;2023-06-01T05:41:41;7.28;;;3.65;;
11303;SDS011;5707;49.588;12.148;2023-06-01T05:44:07;7.20;;;3.35;;
11303;SDS011;5707;49.588;12.148;2023-06-01T05:46:33;10.80;;;4.60;;
11303;SDS011;5707;49.588;12.148;2023-06-01T05:48:58;16.10;;;6.35;;
11303;SDS011;5707;49.588;12.148;2023-06-01T05:51:25;16.42;;;7.25;;
11303;SDS011;5707;49.588;12.148;2023-06-01T05:53:50;10.77;;;6.15;;
11303;SDS011;5707;49.588;12.148;2023-06-01T05:56:17;6.45;;;3.80;;
11303;SDS011;5707;49.588;12.148;2023-06-01T05:58:43;4.93;;;3.50;;
11303;SDS011;5707;49.588;12.148;2023-06-01T06:01:08;5.25;;;3.30;;
11303;SDS011;5707;49.588;12.148;2023-06-01T06:03:35;7.72;;;2.70;;
11303;SDS011;5707;49.588;12.148;2023-06-01T06:06:01;3.17;;;2.85;;
11303;SDS011;5707;49.588;12.148;2023-06-01T06:08:27;8.65;;;3.90;;
11303;SDS011;5707;49.588;12.148;2023-06-01T06:10:52;7.20;;;3.15;;
11303;SDS011;5707;49.588;12.148;2023-06-01T06:13:18;5.75;;;3.15;;
11303;SDS011;5707;49.588;12.148;2023-06-01T06:15:44;7.15;;;2.90;;
11303;SDS011;5707;49.588;12.148;2023-06-01T06:18:10;6.70;;;2.70;;
11303;SDS011;5707;49.588;12.148;2023-06-01T06:20:35;4.22;;;3.10;;
11303;SDS011;5707;49.588;12.148;2023-06-01T06:23:01;3.28;;;2.67;;
11303;SDS011;5707;49.588;12.148;2023-06-01T06:25:26;3.60;;;2.00;;
11303;SDS011;5707;49.588;12.148;2023-06-01T06:27:52;5.43;;;2.58;;
11303;SDS011;5707;49.588;12.148;2023-06-01T06:30:18;3.15;;;2.42;;
11303;SDS011;5707;49.588;12.148;2023-06-01T06:32:43;5.38;;;2.45;;
11303;SDS011;5707;49.588;12.148;2023-06-01T06:35:09;6.82;;;2.72;;
11303;SDS011;5707;49.588;12.148;2023-06-01T06:37:41;6.78;;;2.53;;
11303;SDS011;5707;49.588;12.148;2023-06-01T06:40:07;8.43;;;2.50;;
11303;SDS011;5707;49.588;12.148;2023-06-01T06:42:33;6.20;;;2.13;;
11303;SDS011;5707;49.588;12.148;2023-06-01T06:44:58;4.55;;;2.05;;
11303;SDS011;5707;49.588;12.148;2023-06-01T06:47:24;5.95;;;2.20;;
11303;SDS011;5707;49.588;12.148;2023-06-01T06:49:50;3.45;;;1.92;;
11303;SDS011;5707;49.588;12.148;2023-06-01T06:52:16;8.70;;;3.47;;
11303;SDS011;5707;49.588;12.148;2023-06-01T06:54:42;5.05;;;2.75;;
11303;SDS011;5707;49.588;12.148;2023-06-01T06:57:08;9.57;;;3.28;;
11303;SDS011;5707;49.588;12.148;2023-06-01T06:59:34;7.20;;;3.13;;
11303;SDS011;5707;49.588;12.148;2023-06-01T07:02:00;10.18;;;2.55;;
11303;SDS011;5707;49.588;12.148;2023-06-01T07:04:27;3.65;;;2.42;;
11303;SDS011;5707;49.588;12.148;2023-06-01T07:06:53;2.83;;;2.33;;
11303;SDS011;5707;49.588;12.148;2023-06-01T07:09:18;10.30;;;3.38;;
11303;SDS011;5707;49.588;12.148;2023-06-01T07:11:44;2.60;;;2.38;;
11303;SDS011;5707;49.588;12.148;2023-06-01T07:14:10;2.83;;;2.17;;
11303;SDS011;5707;49.588;12.148;2023-06-01T07:16:36;2.50;;;2.25;;
11303;SDS011;5707;49.588;12.148;2023-06-01T07:19:01;3.83;;;2.53;;
11303;SDS011;5707;49.588;12.148;2023-06-01T07:21:27;3.03;;;2.20;;
11303;SDS011;5707;49.588;12.148;2023-06-01T07:23:53;3.33;;;2.50;;
11303;SDS011;5707;49.588;12.148;2023-06-01T07:26:19;3.27;;;2.50;;
11303;SDS011;5707;49.588;12.148;2023-06-01T07:28:45;7.00;;;2.40;;
11303;SDS011;5707;49.588;12.148;2023-06-01T07:31:11;1.75;;;1.60;;
11303;SDS011;5707;49.588;12.148;2023-06-01T07:33:36;4.15;;;2.03;;
11303;SDS011;5707;49.588;12.148;2023-06-01T07:36:02;6.07;;;2.17;;
11303;SDS011;5707;49.588;12.148;2023-06-01T07:38:31;4.32;;;2.00;;
11303;SDS011;5707;49.588;12.148;2023-06-01T07:40:58;4.10;;;1.90;;
11303;SDS011;5707;49.588;12.148;2023-06-01T07:43:23;5.65;;;2.08;;
11303;SDS011;5707;49.588;12.148;2023-06-01T07:45:49;3.25;;;1.73;;
11303;SDS011;5707;49.588;12.148;2023-06-01T07:48:14;3.67;;;2.25;;
11303;SDS011;5707;49.588;12.148;2023-06-01T07:50:41;3.88;;;2.50;;
11303;SDS011;5707;49.588;12.148;2023-06-01T07:53:06;9.10;;;3.50;;
11303;SDS011;5707;49.588;12.148;2023-06-01T07:55:32;4.60;;;1.92;;
11303;SDS011;5707;49.588;12.148;2023-06-01T07:57:58;3.28;;;1.80;;
11303;SDS011;5707;49.588;12.148;2023-06-01T08:00:23;2.65;;;1.65;;
11303;SDS011;5707;49.588;12.148;2023-06-01T08:02:50;3.53;;;1.95;;
11303;SDS011;5707;49.588;12.148;2023-06-01T08:05:16;2.97;;;1.90;;
11303;SDS011;5707;49.588;12.148;2023-06-01T08:07:42;5.53;;;2.30;;
11303;SDS011;5707;49.588;12.148;2023-06-01T08:10:10;3.25;;;1.73;;
11303;SDS011;5707;49.588;12.148;2023-06-01T08:12:36;2.22;;;1.80;;
11303;SDS011;5707;49.588;12.148;2023-06-01T08:15:02;2.00;;;1.70;;
11303;SDS011;5707;49.588;12.148;2023-06-01T08:17:28;3.70;;;2.20;;
11303;SDS011;5707;49.588;12.148;2023-06-01T08:19:54;2.80;;;1.60;;
11303;SDS011;5707;49.588;12.148;2023-06-01T08:22:21;2.58;;;1.58;;
11303;SDS011;5707;49.588;12.148;2023-06-01T08:24:48;16.00;;;3.58;;
11303;SDS011;5707;49.588;12.148;2023-06-01T08:27:16;2.15;;;1.80;;
11303;SDS011;5707;49.588;12.148;2023-06-01T08:29:44;2.78;;;1.50;;
11303;SDS011;5707;49.588;12.148;2023-06-01T08:32:12;8.30;;;1.90;;
11303;SDS011;5707;49.588;12.148;2023-06-01T08:34:38;2.20;;;1.50;;
11303;SDS011;5707;49.588;12.148;2023-06-01T08:37:03;1.52;;;1.20;;
11303;SDS011;5707;49.588;12.148;2023-06-01T08:39:29;2.80;;;2.03;;
11303;SDS011;5707;49.588;12.148;2023-06-01T08:42:02;4.15;;;1.98;;
11303;SDS011;5707;49.588;12.148;2023-06-01T08:44:47;6.00;;;1.60;;
11303;SDS011;5707;49.588;12.148;2023-06-01T08:47:17;2.75;;;1.33;;
11303;SDS011;5707;49.588;12.148;2023-06-01T08:49:44;3.70;;;1.80;;
11303;SDS011;5707;49.588;12.148;2023-06-01T08:52:13;3.78;;;1.73;;
11303;SDS011;5707;49.588;12.148;2023-06-01T08:54:43;2.63;;;1.75;;
11303;SDS011;5707;49.588;12.148;2023-06-01T08:57:09;1.88;;;1.33;;
11303;SDS011;5707;49.588;12.148;2023-06-01T08:59:36;2.08;;;1.52;;
11303;SDS011;5707;49.588;12.148;2023-06-01T09:02:04;4.70;;;1.77;;
11303;SDS011;5707;49.588;12.148;2023-06-01T09:04:30;2.33;;;1.40;;
11303;SDS011;5707;49.588;12.148;2023-06-01T09:06:59;1.63;;;1.38;;
11303;SDS011;5707;49.588;12.148;2023-06-01T09:09:24;3.53;;;1.55;;
11303;SDS011;5707;49.588;12.148;2023-06-01T09:14:47;2.60;;;1.55;;
11303;SDS011;5707;49.588;12.148;2023-06-01T09:17:22;3.42;;;2.33;;
11303;SDS011;5707;49.588;12.148;2023-06-01T09:19:53;1.70;;;1.35;;
11303;SDS011;5707;49.588;12.148;2023-06-01T09:22:22;3.83;;;1.27;;
11303;SDS011;5707;49.588;12.148;2023-06-01T09:24:58;1.88;;;1.27;;
11303;SDS011;5707;49.588;12.148;2023-06-01T09:27:25;1.58;;;1.30;;
11303;SDS011;5707;49.588;12.148;2023-06-01T09:29:57;1.50;;;1.40;;
11303;SDS011;5707;49.588;12.148;2023-06-01T09:32:26;2.50;;;1.80;;
11303;SDS011;5707;49.588;12.148;2023-06-01T09:34:52;3.20;;;1.65;;
11303;SDS011;5707;49.588;12.148;2023-06-01T09:37:19;2.08;;;1.48;;
11303;SDS011;5707;49.588;12.148;2023-06-01T09:39:45;1.83;;;1.50;;
11303;SDS011;5707;49.588;12.148;2023-06-01T09:42:11;1.98;;;1.40;;
11303;SDS011;5707;49.588;12.148;2023-06-01T09:44:41;4.03;;;1.40;;
11303;SDS011;5707;49.588;12.148;2023-06-01T09:47:08;2.47;;;1.50;;
11303;SDS011;5707;49.588;12.148;2023-06-01T09:49:39;2.70;;;1.50;;
11303;SDS011;5707;49.588;12.148;2023-06-01T09:54:34;2.63;;;1.20;;
11303;SDS011;5707;49.588;12.148;2023-06-01T09:57:03;2.67;;;1.48;;
11303;SDS011;5707;49.588;12.148;2023-06-01T09:59:30;1.45;;;1.35;;
11303;SDS011;5707;49.588;12.148;2023-06-01T10:04:46;1.20;;;1.10;;
11303;SDS011;5707;49.588;12.148;2023-06-01T10:07:14;2.08;;;1.38;;
11303;SDS011;5707;49.588;12.148;2023-06-01T10:09:42;1.95;;;1.63;;
11303;SDS011;5707;49.588;12.148;2023-06-01T10:12:10;2.92;;;1.20;;
11303;SDS011;5707;49.588;12.148;2023-06-01T10:14:37;2.75;;;1.58;;
11303;SDS011;5707;49.588;12.148;2023-06-01T10:17:04;1.38;;;1.27;;
11303;SDS011;5707;49.588;12.148;2023-06-01T10:19:30;1.55;;;1.10;;
11303;SDS011;5707;49.588;12.148;2023-06-01T10:21:59;3.40;;;1.30;;
11303;SDS011;5707;49.588;12.148;2023-06-01T10:24:25;2.10;;;1.40;;
11303;SDS011;5707;49.588;12.148;2023-06-01T10:29:17;2.92;;;1.30;;
11303;SDS011;5707;49.588;12.148;2023-06-01T10:31:43;14.10;;;2.50;;
11303;SDS011;5707;49.588;12.148;2023-06-01T10:34:10;5.28;;;1.67;;
11303;SDS011;5707;49.588;12.148;2023-06-01T10:39:23;1.55;;;1.30;;
11303;SDS011;5707;49.588;12.148;2023-06-01T10:41:54;3.30;;;1.40;;
11303;SDS011;5707;49.588;12.148;2023-06-01T10:50:06;3.58;;;1.42;;
11303;SDS011;5707;49.588;12.148;2023-06-01T10:57:35;2.67;;;1.25;;
11303;SDS011;5707;49.588;12.148;2023-06-01T11:02:54;1.45;;;1.00;;
11303;SDS011;5707;49.588;12.148;2023-06-01T11:13:16;1.63;;;1.45;;
11303;SDS011;5707;49.588;12.148;2023-06-01T11:21:15;1.58;;;1.20;;
11303;SDS011;5707;49.588;12.148;2023-06-01T11:23:43;2.90;;;1.60;;
11303;SDS011;5707;49.588;12.148;2023-06-01T11:26:10;2.67;;;1.40;;
11303;SDS011;5707;49.588;12.148;2023-06-01T11:28:40;1.33;;;1.23;;
11303;SDS011;5707;49.588;12.148;2023-06-01T11:31:14;1.20;;;1.10;;
11303;SDS011;5707;49.588;12.148;2023-06-01T11:33:50;2.38;;;1.70;;
11303;SDS011;5707;49.588;12.148;2023-06-01T11:36:18;5.25;;;1.60;;
11303;SDS011;5707;49.588;12.148;2023-06-01T11:38:45;3.78;;;1.50;;
11303;SDS011;5707;49.588;12.148;2023-06-01T11:41:11;3.47;;;1.30;;
11303;SDS011;5707;49.588;12.148;2023-06-01T11:43:37;3.05;;;1.27;;
11303;SDS011;5707;49.588;12.148;2023-06-01T11:46:03;2.72;;;1.58;;
11303;SDS011;5707;49.588;12.148;2023-06-01T11:48:30;2.92;;;1.30;;
11303;SDS011;5707;49.588;12.148;2023-06-01T11:50:56;3.33;;;1.52;;
11303;SDS011;5707;49.588;12.148;2023-06-01T11:53:25;1.30;;;1.20;;
11303;SDS011;5707;49.588;12.148;2023-06-01T11:55:52;2.13;;;1.48;;
11303;SDS011;5707;49.588;12.148;2023-06-01T11:58:23;3.50;;;1.40;;
11303;SDS011;5707;49.588;12.148;2023-06-01T12:00:50;2.65;;;1.48;;
11303;SDS011;5707;49.588;12.148;2023-06-01T12:03:16;2.15;;;1.40;;
11303;SDS011;5707;49.588;12.148;2023-06-01T12:05:42;2.53;;;1.50;;
11303;SDS011;5707;49.588;12.148;2023-06-01T12:08:22;2.75;;;1.40;;
11303;SDS011;5707;49.588;12.148;2023-06-01T12:10:50;2.90;;;1.55;;
11303;SDS011;5707;49.588;12.148;2023-06-01T12:13:18;3.15;;;1.73;;
11303;SDS011;5707;49.588;12.148;2023-06-01T12:15:45;2.97;;;1.30;;
11303;SDS011;5707;49.588;12.148;2023-06-01T12:18:11;3.22;;;1.50;;
11303;SDS011;5707;49.588;12.148;2023-06-01T12:20:43;2.33;;;1.50;;
11303;SDS011;5707;49.588;12.148;2023-06-01T12:25:38;2.00;;;1.40;;
11303;SDS011;5707;49.588;12.148;2023-06-01T12:28:24;2.90;;;1.60;;
11303;SDS011;5707;49.588;12.148;2023-06-01T12:31:09;1.63;;;1.20;;
11303;SDS011;5707;49.588;12.148;2023-06-01T12:33:38;1.95;;;1.00;;
11303;SDS011;5707;49.588;12.148;2023-06-01T12:36:05;3.28;;;1.13;;
11303;SDS011;5707;49.588;12.148;2023-06-01T12:38:35;1.27;;;1.17;;
11303;SDS011;5707;49.588;12.148;2023-06-01T12:41:06;2.92;;;1.40;;
11303;SDS011;5707;49.588;12.148;2023-06-01T12:43:36;1.60;;;1.38;;
11303;SDS011;5707;49.588;12.148;2023-06-01T12:46:02;1.45;;;1.10;;
11303;SDS011;5707;49.588;12.148;2023-06-01T12:48:32;2.10;;;1.08;;
11303;SDS011;5707;49.588;12.148;2023-06-01T12:50:59;3.28;;;1.17;;
11303;SDS011;5707;49.588;12.148;2023-06-01T12:53:26;1.70;;;1.20;;
11303;SDS011;5707;49.588;12.148;2023-06-01T12:55:52;1.65;;;1.25;;
11303;SDS011;5707;49.588;12.148;2023-06-01T12:58:18;2.85;;;1.15;;
11303;SDS011;5707;49.588;12.148;2023-06-01T13:00:43;3.83;;;1.30;;
11303;SDS011;5707;49.588;12.148;2023-06-01T13:03:09;1.65;;;1.20;;
11303;SDS011;5707;49.588;12.148;2023-06-01T13:05:35;2.63;;;1.13;;
11303;SDS011;5707;49.588;12.148;2023-06-01T13:08:00;1.45;;;1.10;;
11303;SDS011;5707;49.588;12.148;2023-06-01T13:10:27;1.80;;;0.93;;
11303;SDS011;5707;49.588;12.148;2023-06-01T13:12:53;1.73;;;1.20;;
11303;SDS011;5707;49.588;12.148;2023-06-01T13:15:20;2.25;;;1.08;;
11303;SDS011;5707;49.588;12.148;2023-06-01T13:17:46;1.90;;;1.00;;
11303;SDS011;5707;49.588;12.148;2023-06-01T13:20:12;1.52;;;1.13;;
11303;SDS011;5707;49.588;12.148;2023-06-01T13:22:41;1.05;;;0.90;;
11303;SDS011;5707;49.588;12.148;2023-06-01T13:25:07;2.67;;;1.00;;
11303;SDS011;5707;49.588;12.148;2023-06-01T13:27:33;2.40;;;1.27;;
11303;SDS011;5707;49.588;12.148;2023-06-01T13:29:59;1.95;;;1.10;;
11303;SDS011;5707;49.588;12.148;2023-06-01T13:32:26;2.58;;;1.25;;
11303;SDS011;5707;49.588;12.148;2023-06-01T13:34:52;1.35;;;1.08;;
11303;SDS011;5707;49.588;12.148;2023-06-01T13:37:18;1.65;;;0.98;;
11303;SDS011;5707;49.588;12.148;2023-06-01T13:39:43;1.67;;;1.00;;
11303;SDS011;5707;49.588;12.148;2023-06-01T13:42:09;3.10;;;1.33;;
11303;SDS011;5707;49.588;12.148;2023-06-01T13:44:34;1.10;;;0.90;;
11303;SDS011;5707;49.588;12.148;2023-06-01T13:47:00;1.50;;;1.30;;
11303;SDS011;5707;49.588;12.148;2023-06-01T13:49:26;1.85;;;1.50;;
11303;SDS011;5707;49.588;12.148;2023-06-01T13:51:52;1.60;;;1.10;;
11303;SDS011;5707;49.588;12.148;2023-06-01T13:54:17;1.35;;;1.00;;
11303;SDS011;5707;49.588;12.148;2023-06-01T13:56:43;1.50;;;1.08;;
11303;SDS011;5707;49.588;12.148;2023-06-01T13:59:09;1.58;;;1.20;;
11303;SDS011;5707;49.588;12.148;2023-06-01T14:01:35;1.38;;;1.27;;
11303;SDS011;5707;49.588;12.148;2023-06-01T14:04:00;1.55;;;1.20;;
11303;SDS011;5707;49.588;12.148;2023-06-01T14:06:26;1.83;;;1.25;;
11303;SDS011;5707;49.588;12.148;2023-06-01T14:08:52;2.05;;;0.95;;
11303;SDS011;5707;49.588;12.148;2023-06-01T14:11:17;2.40;;;1.40;;
11303;SDS011;5707;49.588;12.148;2023-06-01T14:13:43;2.45;;;0.93;;
11303;SDS011;5707;49.588;12.148;2023-06-01T14:16:08;2.17;;;1.08;;
11303;SDS011;5707;49.588;12.148;2023-06-01T14:18:34;1.67;;;1.27;;
11303;SDS011;5707;49.588;12.148;2023-06-01T14:21:00;4.03;;;1.35;;
11303;SDS011;5707;49.588;12.148;2023-06-01T14:23:25;3.03;;;1.45;;
11303;SDS011;5707;49.588;12.148;2023-06-01T14:25:51;1.98;;;1.23;;
11303;SDS011;5707;49.588;12.148;2023-06-01T14:28:16;1.77;;;1.20;;
11303;SDS011;5707;49.588;12.148;2023-06-01T14:30:42;2.55;;;1.40;;
11303;SDS011;5707;49.588;12.148;2023-06-01T14:33:07;2.65;;;1.38;;
11303;SDS011;5707;49.588;12.148;2023-06-01T14:35:33;3.60;;;1.65;;
11303;SDS011;5707;49.588;12.148;2023-06-01T14:37:59;2.78;;;1.40;;
11303;SDS011;5707;49.588;12.148;2023-06-01T14:40:24;1.45;;;1.10;;
11303;SDS011;5707;49.588;12.148;2023-06-01T14:42:50;1.50;;;1.40;;
11303;SDS011;5707;49.588;12.148;2023-06-01T14:45:15;2.72;;;1.33;;
11303;SDS011;5707;49.588;12.148;2023-06-01T14:47:43;1.35;;;1.20;;
11303;SDS011;5707;49.588;12.148;2023-06-01T14:50:09;2.58;;;0.93;;
11303;SDS011;5707;49.588;12.148;2023-06-01T14:52:35;2.10;;;1.25;;
11303;SDS011;5707;49.588;12.148;2023-06-01T14:55:01;1.15;;;1.05;;
11303;SDS011;5707;49.588;12.148;2023-06-01T14:57:26;2.15;;;1.30;;
11303;SDS011;5707;49.588;12.148;2023-06-01T14:59:52;1.40;;;1.30;;
11303;SDS011;5707;49.588;12.148;2023-06-01T15:02:18;2.78;;;1.33;;
11303;SDS011;5707;49.588;12.148;2023-06-01T15:04:43;2.20;;;1.42;;
11303;SDS011;5707;49.588;12.148;2023-06-01T15:07:10;1.40;;;1.30;;
11303;SDS011;5707;49.588;12.148;2023-06-01T15:09:35;2.17;;;1.30;;
11303;SDS011;5707;49.588;12.148;2023-06-01T15:12:01;1.92;;;1.60;;
11303;SDS011;5707;49.588;12.148;2023-06-01T15:14:27;1.38;;;1.27;;
11303;SDS011;5707;49.588;12.148;2023-06-01T15:16:52;2.65;;;1.20;;
11303;SDS011;5707;49.588;12.148;2023-06-01T15:19:18;1.60;;;1.50;;
11303;SDS011;5707;49.588;12.148;2023-06-01T15:21:44;2.85;;;1.33;;
11303;SDS011;5707;49.588;12.148;2023-06-01T15:24:09;3.38;;;1.38;;
11303;SDS011;5707;49.588;12.148;2023-06-01T15:26:35;2.03;;;1.45;;
11303;SDS011;5707;49.588;12.148;2023-06-01T15:29:02;1.60;;;1.50;;
11303;SDS011;5707;49.588;12.148;2023-06-01T15:31:27;2.15;;;1.45;;
11303;SDS011;5707;49.588;12.148;2023-06-01T15:33:53;3.22;;;1.65;;
11303;SDS011;5707;49.588;12.148;2023-06-01T15:36:18;3.83;;;1.55;;
11303;SDS011;5707;49.588;12.148;2023-06-01T15:38:44;2.85;;;1.42;;
11303;SDS011;5707;49.588;12.148;2023-06-01T15:41:10;1.77;;;1.40;;
11303;SDS011;5707;49.588;12.148;2023-06-01T15:43:36;2.20;;;1.60;;